Time;durP1;ratioP1;P1;durP2;ratioP2;P2;SDS_P1;SDS_P2;PMS_P1;PMS_P2;Temp;Humidity;BMP_temperature;BMP_pressure;BME280_temperature;BME280_humidity;BME280_pressure;Samples;Min_cycle;Max_cycle;Signal;HPM_P1;HPM_P2
2023/07/31 00:00:36;;;;;;;18.90;15.70;;;;;;;;;;6276764;22;20004;-83
2023/07/31 00:03:01;;;;;;;19.23;15.38;;;;;;;;;;6224341;22;20082;-81
2023/07/31 00:05:27;;;;;;;17.67;15.55;;;;;;;;;;6276362;22;20061;-81
2023/07/31 00:07:53;;;;;;;19.35;13.90;;;;;;;;;;6249464;22;19999;-82
2023/07/31 00:10:19;;;;;;;18.80;13.70;;;;;;;;;;6276729;22;20036;-81
2023/07/31 00:12:44;;;;;;;18.23;14.25;;;;;;;;;;6276502;22;20031;-82
2023/07/31 00:15:10;;;;;;;17.58;14.65;;;;;;;;;;6255705;22;20000;-80
2023/07/31 00:17:36;;;;;;;16.67;14.63;;;;;;;;;;6277117;22;20004;-81
2023/07/31 00:20:02;;;;;;;18.65;14.80;;;;;;;;;;6276502;22;20008;-82
2023/07/31 00:22:27;;;;;;;18.73;14.73;;;;;;;;;;6276482;22;20004;-82
2023/07/31 00:24:53;;;;;;;18.55;14.55;;;;;;;;;;6276196;22;19999;-81
2023/07/31 00:27:18;;;;;;;19.33;14.32;;;;;;;;;;6276173;22;20006;-82
2023/07/31 00:29:44;;;;;;;18.40;14.95;;;;;;;;;;6275879;22;19999;-81
2023/07/31 00:32:09;;;;;;;19.88;15.13;;;;;;;;;;6276301;22;20045;-81
2023/07/31 00:34:34;;;;;;;20.45;15.57;;;;;;;;;;6276460;22;20064;-80
2023/07/31 00:37:00;;;;;;;18.00;15.30;;;;;;;;;;6251548;22;20007;-81
2023/07/31 00:39:25;;;;;;;21.10;15.15;;;;;;;;;;6278270;22;19996;-81
2023/07/31 00:41:51;;;;;;;20.05;15.13;;;;;;;;;;6276255;22;20090;-82
2023/07/31 00:44:16;;;;;;;18.40;14.90;;;;;;;;;;6249454;22;20026;-81
2023/07/31 00:46:41;;;;;;;20.17;15.10;;;;;;;;;;6276373;22;20004;-82
2023/07/31 00:49:08;;;;;;;20.00;15.35;;;;;;;;;;6224325;22;20006;-81
2023/07/31 00:51:33;;;;;;;18.23;14.13;;;;;;;;;;6248730;22;20034;-82
2023/07/31 00:53:58;;;;;;;19.15;14.43;;;;;;;;;;6248992;22;20008;-80
2023/07/31 00:56:24;;;;;;;18.90;15.20;;;;;;;;;;6248957;22;19999;-81
2023/07/31 00:58:49;;;;;;;17.20;14.88;;;;;;;;;;6224255;22;20434;-81
2023/07/31 01:01:15;;;;;;;19.70;14.50;;;;;;;;;;6278748;22;20449;-80
2023/07/31 01:03:40;;;;;;;20.42;15.13;;;;;;;;;;6225950;22;20010;-81
2023/07/31 01:06:47;;;;;;;19.27;15.20;;;;;;;;;;6225223;22;20003;-81
2023/07/31 01:09:37;;;;;;;19.98;15.02;;;;;;;;;;6168613;22;20399;-82
2023/07/31 01:12:04;;;;;;;23.05;15.50;;;;;;;;;;6249204;22;20007;-81
2023/07/31 01:14:29;;;;;;;20.08;15.57;;;;;;;;;;6275805;22;19999;-82
2023/07/31 01:16:55;;;;;;;19.35;14.52;;;;;;;;;;6198706;22;20399;-80
2023/07/31 01:19:26;;;;;;;20.15;16.13;;;;;;;;;;6223563;22;20004;-82
2023/07/31 01:22:07;;;;;;;20.15;16.48;;;;;;;;;;6276099;22;20007;-81
2023/07/31 01:24:38;;;;;;;22.05;16.40;;;;;;;;;;6281308;22;20480;-83
2023/07/31 01:27:10;;;;;;;23.40;15.90;;;;;;;;;;6275628;22;20050;-81
2023/07/31 01:29:43;;;;;;;21.38;16.52;;;;;;;;;;6223641;22;20004;-81
2023/07/31 01:32:08;;;;;;;21.58;16.65;;;;;;;;;;6223698;22;20008;-80
2023/07/31 01:34:34;;;;;;;22.05;16.17;;;;;;;;;;6275550;22;20085;-81
2023/07/31 01:36:59;;;;;;;23.23;15.80;;;;;;;;;;6223297;22;20053;-81
2023/07/31 01:39:25;;;;;;;21.23;16.30;;;;;;;;;;6275926;22;20000;-82
2023/07/31 01:41:52;;;;;;;23.45;16.88;;;;;;;;;;6275552;22;19996;-81
2023/07/31 01:44:17;;;;;;;23.20;16.77;;;;;;;;;;6248850;22;20004;-81
2023/07/31 01:46:43;;;;;;;25.45;16.33;;;;;;;;;;6278099;22;19996;-81
2023/07/31 01:49:08;;;;;;;24.30;17.20;;;;;;;;;;6283864;22;19996;-81
2023/07/31 01:51:36;;;;;;;27.17;17.42;;;;;;;;;;6275572;22;20007;-81
2023/07/31 01:54:02;;;;;;;22.23;17.10;;;;;;;;;;6247829;22;20091;-80
2023/07/31 01:56:27;;;;;;;24.50;17.27;;;;;;;;;;6248829;22;20381;-80
2023/07/31 01:58:53;;;;;;;26.70;16.92;;;;;;;;;;6276088;22;20006;-83
2023/07/31 02:01:18;;;;;;;20.63;16.00;;;;;;;;;;6223354;22;20010;-80
2023/07/31 02:03:43;;;;;;;19.00;15.88;;;;;;;;;;6275625;22;20000;-80
2023/07/31 02:06:09;;;;;;;21.63;16.15;;;;;;;;;;6248486;22;20007;-81
2023/07/31 02:08:34;;;;;;;20.33;15.98;;;;;;;;;;6275418;22;20004;-79
2023/07/31 02:11:00;;;;;;;21.33;16.23;;;;;;;;;;6201548;22;20015;-80
2023/07/31 02:13:25;;;;;;;20.27;16.17;;;;;;;;;;6248975;22;19995;-80
2023/07/31 02:15:51;;;;;;;24.38;16.77;;;;;;;;;;6275459;22;20006;-81
2023/07/31 02:18:16;;;;;;;22.20;16.33;;;;;;;;;;6276034;22;20006;-81
2023/07/31 02:20:41;;;;;;;21.60;15.60;;;;;;;;;;6275781;22;20035;-81
2023/07/31 02:23:07;;;;;;;21.65;15.82;;;;;;;;;;6276368;22;20019;-81
2023/07/31 02:25:32;;;;;;;19.60;14.88;;;;;;;;;;6251296;22;20007;-81
2023/07/31 02:27:58;;;;;;;19.63;15.88;;;;;;;;;;6256012;22;20044;-80
2023/07/31 02:30:23;;;;;;;20.25;14.68;;;;;;;;;;6302006;22;19987;-81
2023/07/31 02:32:49;;;;;;;19.65;15.38;;;;;;;;;;6266845;22;20008;-80
2023/07/31 02:35:15;;;;;;;19.20;13.93;;;;;;;;;;6269320;22;20027;-81
2023/07/31 02:37:41;;;;;;;19.75;13.98;;;;;;;;;;6263484;22;20000;-81
2023/07/31 02:40:07;;;;;;;20.52;14.10;;;;;;;;;;6223464;22;20014;-80
2023/07/31 02:42:33;;;;;;;22.23;13.90;;;;;;;;;;6275152;22;20000;-81
2023/07/31 02:44:58;;;;;;;18.60;13.98;;;;;;;;;;6248509;22;20007;-81
2023/07/31 02:47:23;;;;;;;18.60;12.93;;;;;;;;;;6222963;22;20004;-80
2023/07/31 02:49:49;;;;;;;17.52;12.80;;;;;;;;;;6248334;22;20003;-80
2023/07/31 02:52:14;;;;;;;18.80;12.18;;;;;;;;;;6274781;22;20378;-80
2023/07/31 02:54:40;;;;;;;17.70;12.55;;;;;;;;;;6248145;22;20424;-81
2023/07/31 02:57:06;;;;;;;15.10;12.38;;;;;;;;;;6256547;22;20122;-80
2023/07/31 02:59:31;;;;;;;16.42;12.07;;;;;;;;;;6249719;22;20000;-80
2023/07/31 03:01:56;;;;;;;15.45;11.55;;;;;;;;;;6247882;22;20004;-81
2023/07/31 03:04:22;;;;;;;14.18;11.35;;;;;;;;;;6274866;22;20007;-80
2023/07/31 03:06:47;;;;;;;15.55;12.05;;;;;;;;;;6275043;22;19999;-81
2023/07/31 03:09:13;;;;;;;18.10;11.60;;;;;;;;;;6222309;22;20112;-81
2023/07/31 03:11:38;;;;;;;14.90;11.23;;;;;;;;;;6274741;22;20014;-80
2023/07/31 03:14:04;;;;;;;15.10;11.15;;;;;;;;;;6274815;22;20003;-81
2023/07/31 03:16:29;;;;;;;14.23;10.85;;;;;;;;;;6247853;22;20003;-80
2023/07/31 03:18:54;;;;;;;15.55;11.25;;;;;;;;;;6251391;22;20004;-80
2023/07/31 03:21:20;;;;;;;14.85;10.80;;;;;;;;;;6253446;22;20062;-81
2023/07/31 03:23:45;;;;;;;13.65;10.30;;;;;;;;;;6248066;22;20058;-80
2023/07/31 03:26:11;;;;;;;13.77;9.68;;;;;;;;;;6248141;22;20061;-81
2023/07/31 03:28:36;;;;;;;12.57;9.48;;;;;;;;;;6222462;22;20007;-81
2023/07/31 03:31:02;;;;;;;13.95;9.52;;;;;;;;;;6274879;22;20026;-81
2023/07/31 03:33:27;;;;;;;11.50;9.70;;;;;;;;;;6274628;22;20011;-82
2023/07/31 03:35:53;;;;;;;10.05;8.15;;;;;;;;;;6222332;22;20426;-81
2023/07/31 03:38:19;;;;;;;9.80;8.18;;;;;;;;;;6274656;22;19999;-81
2023/07/31 03:40:44;;;;;;;9.93;8.23;;;;;;;;;;6247754;22;20027;-80
2023/07/31 03:43:10;;;;;;;8.98;7.10;;;;;;;;;;6284749;22;20003;-81
2023/07/31 03:45:35;;;;;;;8.93;7.70;;;;;;;;;;6223727;22;20071;-81
2023/07/31 03:48:01;;;;;;;10.57;7.35;;;;;;;;;;6247307;22;20450;-81
2023/07/31 03:50:26;;;;;;;9.23;7.05;;;;;;;;;;6247936;22;20004;-82
2023/07/31 03:52:52;;;;;;;12.10;7.63;;;;;;;;;;6247856;22;20010;-81
2023/07/31 03:55:18;;;;;;;10.75;6.90;;;;;;;;;;6274877;22;20014;-82
2023/07/31 03:57:43;;;;;;;7.80;6.70;;;;;;;;;;6274905;22;20004;-80
2023/07/31 04:00:09;;;;;;;9.02;6.80;;;;;;;;;;6222515;22;20003;-80
2023/07/31 04:02:35;;;;;;;7.03;6.32;;;;;;;;;;6274444;22;20007;-81
2023/07/31 04:05:00;;;;;;;6.78;5.75;;;;;;;;;;6276851;22;20341;-80
2023/07/31 04:07:26;;;;;;;6.88;6.07;;;;;;;;;;6277236;22;20003;-81
2023/07/31 04:09:51;;;;;;;9.48;5.90;;;;;;;;;;6276671;22;20010;-81
2023/07/31 04:12:16;;;;;;;6.95;5.80;;;;;;;;;;6249052;22;20055;-81
2023/07/31 04:14:42;;;;;;;5.85;5.25;;;;;;;;;;6276486;22;19999;-81
2023/07/31 04:17:07;;;;;;;6.68;5.15;;;;;;;;;;6276323;22;20492;-81
2023/07/31 04:19:33;;;;;;;7.55;5.47;;;;;;;;;;6249547;22;20004;-80
2023/07/31 04:21:58;;;;;;;5.72;5.00;;;;;;;;;;6276514;22;19999;-81
2023/07/31 04:24:26;;;;;;;5.38;4.88;;;;;;;;;;6224108;22;20033;-80
2023/07/31 04:26:52;;;;;;;4.82;4.43;;;;;;;;;;6282746;22;20453;-79
2023/07/31 04:29:17;;;;;;;5.30;4.50;;;;;;;;;;6225297;22;20004;-81
2023/07/31 04:31:43;;;;;;;5.13;4.63;;;;;;;;;;6249187;22;20334;-80
2023/07/31 04:34:08;;;;;;;5.78;5.05;;;;;;;;;;6276072;22;20000;-80
2023/07/31 04:36:34;;;;;;;8.48;4.93;;;;;;;;;;6276095;22;20426;-82
2023/07/31 04:39:00;;;;;;;6.10;5.07;;;;;;;;;;6276334;22;20434;-81
2023/07/31 04:41:25;;;;;;;6.43;5.20;;;;;;;;;;6276140;22;20465;-81
2023/07/31 04:43:51;;;;;;;6.57;4.97;;;;;;;;;;6276367;22;20031;-81
2023/07/31 04:46:16;;;;;;;5.50;4.40;;;;;;;;;;6248958;22;20003;-80
2023/07/31 04:48:42;;;;;;;4.97;4.32;;;;;;;;;;6277214;22;19996;-79
2023/07/31 04:51:09;;;;;;;4.88;4.38;;;;;;;;;;6259723;22;20008;-80
2023/07/31 04:53:34;;;;;;;8.45;4.38;;;;;;;;;;6224916;22;20024;-80
2023/07/31 04:56:00;;;;;;;4.75;4.03;;;;;;;;;;6276501;22;20372;-80
2023/07/31 04:58:25;;;;;;;4.95;4.32;;;;;;;;;;6277800;22;20027;-80
2023/07/31 05:00:50;;;;;;;7.72;4.78;;;;;;;;;;6277361;22;20042;-80
2023/07/31 05:03:16;;;;;;;5.63;4.30;;;;;;;;;;6249288;22;20003;-80
2023/07/31 05:05:42;;;;;;;4.82;4.32;;;;;;;;;;6199262;22;20003;-80
2023/07/31 05:08:07;;;;;;;6.88;4.55;;;;;;;;;;6225037;22;20415;-80
2023/07/31 05:10:32;;;;;;;5.32;4.55;;;;;;;;;;6275879;22;20027;-80
2023/07/31 05:12:58;;;;;;;5.65;5.05;;;;;;;;;;6282687;22;20011;-80
2023/07/31 05:15:23;;;;;;;9.55;5.70;;;;;;;;;;6278571;22;20000;-80
2023/07/31 05:17:49;;;;;;;10.27;6.10;;;;;;;;;;6275924;22;19999;-80
2023/07/31 05:20:14;;;;;;;9.48;5.88;;;;;;;;;;6223718;22;20431;-79
2023/07/31 05:22:40;;;;;;;7.88;5.53;;;;;;;;;;6249016;22;20000;-80
2023/07/31 05:25:06;;;;;;;6.50;4.38;;;;;;;;;;6275512;22;20003;-81
2023/07/31 05:27:31;;;;;;;6.05;4.38;;;;;;;;;;6276169;22;20003;-80
2023/07/31 05:29:57;;;;;;;5.22;4.10;;;;;;;;;;6275557;22;20492;-80
2023/07/31 05:32:23;;;;;;;3.88;2.97;;;;;;;;;;6249165;22;20030;-81
2023/07/31 05:34:51;;;;;;;3.42;2.75;;;;;;;;;;6249469;22;20312;-82
2023/07/31 05:37:17;;;;;;;4.53;2.83;;;;;;;;;;6254899;22;20038;-81
2023/07/31 05:39:42;;;;;;;4.10;2.88;;;;;;;;;;6275828;22;20007;-81
2023/07/31 05:42:07;;;;;;;2.85;2.63;;;;;;;;;;6275906;22;20003;-80
2023/07/31 05:44:33;;;;;;;5.47;3.42;;;;;;;;;;6223078;22;20423;-80
2023/07/31 05:46:58;;;;;;;5.90;2.95;;;;;;;;;;6275668;22;20046;-81
2023/07/31 05:49:24;;;;;;;4.57;3.20;;;;;;;;;;6222919;22;20350;-81
2023/07/31 05:51:49;;;;;;;5.55;3.22;;;;;;;;;;6275200;22;20069;-80
2023/07/31 05:54:15;;;;;;;3.50;3.20;;;;;;;;;;6223176;22;20007;-82
2023/07/31 05:56:40;;;;;;;4.13;3.30;;;;;;;;;;6275581;22;20000;-82
2023/07/31 05:59:06;;;;;;;4.70;3.20;;;;;;;;;;6281960;22;20023;-82
2023/07/31 06:01:31;;;;;;;4.85;3.20;;;;;;;;;;6250829;22;20000;-82
2023/07/31 06:03:57;;;;;;;4.97;2.83;;;;;;;;;;6248457;22;20008;-83
2023/07/31 06:06:22;;;;;;;4.57;3.33;;;;;;;;;;6275396;22;19999;-83
2023/07/31 06:08:48;;;;;;;3.63;3.15;;;;;;;;;;6248375;22;20040;-83
2023/07/31 06:11:13;;;;;;;3.92;3.00;;;;;;;;;;6275499;22;20371;-82
2023/07/31 06:13:39;;;;;;;4.22;3.10;;;;;;;;;;6277129;22;20121;-82
2023/07/31 06:16:06;;;;;;;3.00;2.80;;;;;;;;;;6248223;22;20000;-83
2023/07/31 06:18:32;;;;;;;5.95;3.08;;;;;;;;;;6275340;22;20450;-82
2023/07/31 06:20:58;;;;;;;3.63;2.83;;;;;;;;;;6277113;22;20000;-81
2023/07/31 06:23:23;;;;;;;2.72;2.38;;;;;;;;;;6284211;22;20342;-81
2023/07/31 06:25:49;;;;;;;3.50;2.75;;;;;;;;;;6248641;22;20000;-82
2023/07/31 06:28:14;;;;;;;5.78;2.67;;;;;;;;;;6274898;22;20411;-82
2023/07/31 06:30:40;;;;;;;2.78;2.58;;;;;;;;;;6275699;22;20006;-82
2023/07/31 06:33:05;;;;;;;3.95;2.33;;;;;;;;;;6274951;22;20406;-83
2023/07/31 06:35:30;;;;;;;2.55;2.30;;;;;;;;;;6248327;22;19999;-83
2023/07/31 06:37:56;;;;;;;2.70;2.47;;;;;;;;;;6274959;22;20011;-83
2023/07/31 06:40:22;;;;;;;4.38;2.50;;;;;;;;;;6275296;22;19995;-83
2023/07/31 06:43:09;;;;;;;2.55;2.20;;;;;;;;;;6248017;22;20022;-83
2023/07/31 06:45:35;;;;;;;3.65;2.47;;;;;;;;;;6233752;22;20007;-81
2023/07/31 06:48:01;;;;;;;5.55;2.60;;;;;;;;;;6225201;22;20090;-82
2023/07/31 06:50:30;;;;;;;5.32;2.55;;;;;;;;;;6248053;22;20935;-83
2023/07/31 06:52:55;;;;;;;3.10;2.72;;;;;;;;;;6248141;22;20378;-82
2023/07/31 06:55:22;;;;;;;5.72;2.72;;;;;;;;;;6248028;22;20000;-83
2023/07/31 06:57:48;;;;;;;3.08;2.65;;;;;;;;;;6275160;22;20015;-83
2023/07/31 07:00:13;;;;;;;3.60;2.80;;;;;;;;;;6275020;22;20331;-83
2023/07/31 07:02:39;;;;;;;3.95;3.38;;;;;;;;;;6247964;22;20346;-82
2023/07/31 07:05:06;;;;;;;3.53;2.80;;;;;;;;;;6275051;22;19999;-83
2023/07/31 07:07:32;;;;;;;4.00;2.70;;;;;;;;;;6224280;22;20361;-82
2023/07/31 07:09:59;;;;;;;3.15;2.80;;;;;;;;;;6252978;22;20026;-83
2023/07/31 07:12:26;;;;;;;2.88;2.67;;;;;;;;;;6274531;22;20418;-82
2023/07/31 07:14:52;;;;;;;2.40;2.17;;;;;;;;;;6248390;22;20014;-83
2023/07/31 07:17:18;;;;;;;4.43;2.97;;;;;;;;;;6275760;22;20008;-82
2023/07/31 07:19:45;;;;;;;3.40;2.70;;;;;;;;;;6247998;22;20011;-83
2023/07/31 07:22:11;;;;;;;5.60;2.97;;;;;;;;;;6275024;22;20390;-83
2023/07/31 07:24:36;;;;;;;4.85;3.58;;;;;;;;;;6247866;22;20000;-83
2023/07/31 07:27:02;;;;;;;7.32;4.00;;;;;;;;;;6247928;22;20004;-82
2023/07/31 07:29:27;;;;;;;4.10;3.70;;;;;;;;;;6247919;22;20360;-82
2023/07/31 07:31:52;;;;;;;4.75;4.13;;;;;;;;;;6286727;22;20070;-82
2023/07/31 07:34:18;;;;;;;5.80;4.80;;;;;;;;;;6249371;22;20003;-84
2023/07/31 07:36:43;;;;;;;5.80;5.20;;;;;;;;;;6274442;22;20422;-79
2023/07/31 07:39:10;;;;;;;8.18;5.35;;;;;;;;;;6248059;22;20092;-82
2023/07/31 07:41:35;;;;;;;8.15;5.53;;;;;;;;;;6248997;22;20014;-82
2023/07/31 07:44:01;;;;;;;7.72;5.70;;;;;;;;;;6224227;22;20346;-82
2023/07/31 07:46:26;;;;;;;9.23;6.43;;;;;;;;;;6249484;22;20004;-81
2023/07/31 07:48:52;;;;;;;13.52;6.72;;;;;;;;;;6276934;22;20090;-82
2023/07/31 07:51:17;;;;;;;9.38;6.25;;;;;;;;;;6276585;22;20008;-80
2023/07/31 07:53:43;;;;;;;10.35;6.88;;;;;;;;;;6278859;22;20034;-81
2023/07/31 07:56:08;;;;;;;8.10;6.97;;;;;;;;;;6254868;22;20000;-82
2023/07/31 07:58:33;;;;;;;11.32;7.55;;;;;;;;;;6277097;22;20004;-81
2023/07/31 08:00:59;;;;;;;15.13;8.60;;;;;;;;;;6276958;22;19996;-81
2023/07/31 08:03:24;;;;;;;13.43;9.30;;;;;;;;;;6276610;22;20453;-82
2023/07/31 08:05:50;;;;;;;16.13;10.18;;;;;;;;;;6276632;22;20042;-82
2023/07/31 08:08:18;;;;;;;16.33;10.38;;;;;;;;;;6276580;22;20008;-82
2023/07/31 08:10:44;;;;;;;18.77;11.60;;;;;;;;;;6248781;22;20007;-81
2023/07/31 08:13:11;;;;;;;20.92;13.02;;;;;;;;;;6224133;22;20316;-80
2023/07/31 08:15:36;;;;;;;17.50;12.10;;;;;;;;;;6224532;22;20381;-81
2023/07/31 08:18:01;;;;;;;19.35;11.60;;;;;;;;;;6285870;22;20004;-83
2023/07/31 08:20:30;;;;;;;16.85;11.38;;;;;;;;;;6251535;22;20003;-81
2023/07/31 08:22:55;;;;;;;;;;;;;;;;;;6277286;22;20008;-82
2023/07/31 08:25:21;;;;;;;17.35;11.30;;;;;;;;;;6249057;22;19914;-82
2023/07/31 08:27:46;;;;;;;18.20;11.85;;;;;;;;;;6249415;22;20006;-85
2023/07/31 08:30:12;;;;;;;18.17;11.98;;;;;;;;;;6276319;22;20086;-83
2023/07/31 08:32:37;;;;;;;20.25;11.88;;;;;;;;;;6276644;22;20003;-83
2023/07/31 08:35:03;;;;;;;18.40;12.40;;;;;;;;;;6276060;22;20354;-83
2023/07/31 08:37:28;;;;;;;17.25;11.48;;;;;;;;;;6248908;22;19992;-83
2023/07/31 08:39:54;;;;;;;15.27;11.40;;;;;;;;;;6276805;22;20007;-82
2023/07/31 08:42:20;;;;;;;18.58;11.73;;;;;;;;;;6256584;22;20003;-81
2023/07/31 08:44:45;;;;;;;19.05;10.43;;;;;;;;;;6277593;22;20001;-84
2023/07/31 08:47:11;;;;;;;19.58;9.88;;;;;;;;;;6249590;22;20397;-82
2023/07/31 08:49:37;;;;;;;13.68;10.07;;;;;;;;;;6276777;22;20006;-83
2023/07/31 08:52:02;;;;;;;16.80;11.00;;;;;;;;;;6248344;22;20039;-81
2023/07/31 08:54:30;;;;;;;16.40;11.30;;;;;;;;;;6275679;22;20354;-83
2023/07/31 08:56:56;;;;;;;16.45;11.30;;;;;;;;;;6276284;22;20423;-82
2023/07/31 08:59:22;;;;;;;20.33;11.20;;;;;;;;;;6249092;22;20065;-80
2023/07/31 09:01:49;;;;;;;16.30;11.73;;;;;;;;;;6249067;22;20007;-81
2023/07/31 09:04:15;;;;;;;16.20;9.88;;;;;;;;;;6280969;22;20014;-81
2023/07/31 09:06:40;;;;;;;14.20;9.57;;;;;;;;;;6277808;22;20000;-81
2023/07/31 09:09:06;;;;;;;12.20;8.60;;;;;;;;;;6198348;22;20014;-81
2023/07/31 09:11:31;;;;;;;14.98;8.40;;;;;;;;;;6275684;22;20065;-81
2023/07/31 09:14:01;;;;;;;12.27;8.02;;;;;;;;;;6275421;22;20035;-81
2023/07/31 09:16:30;;;;;;;11.35;7.55;;;;;;;;;;6275603;22;20011;-81
2023/07/31 09:18:56;;;;;;;;;;;;;;;;;;6277038;22;20059;-80
2023/07/31 09:21:22;;;;;;;10.10;6.68;;;;;;;;;;6248865;22;19903;-81
2023/07/31 09:23:48;;;;;;;7.68;5.95;;;;;;;;;;6248959;22;20074;-82
2023/07/31 09:26:34;;;;;;;8.02;6.22;;;;;;;;;;6276615;22;20004;-81
2023/07/31 09:29:00;;;;;;;11.20;7.28;;;;;;;;;;6258034;22;20061;-82
2023/07/31 09:31:33;;;;;;;9.95;6.90;;;;;;;;;;6248754;22;20043;-82
2023/07/31 09:34:00;;;;;;;9.32;7.28;;;;;;;;;;6223776;22;20071;-81
2023/07/31 09:36:28;;;;;;;9.50;7.03;;;;;;;;;;6249049;22;20008;-83
2023/07/31 09:38:54;;;;;;;8.20;6.50;;;;;;;;;;6248946;22;20379;-82
2023/07/31 09:41:21;;;;;;;8.88;5.40;;;;;;;;;;6275617;22;20004;-81
2023/07/31 09:43:53;;;;;;;6.78;4.80;;;;;;;;;;6275399;22;20056;-82
2023/07/31 09:46:18;;;;;;;7.95;4.82;;;;;;;;;;6275347;22;20011;-82
2023/07/31 09:48:44;;;;;;;7.35;4.97;;;;;;;;;;6223219;22;20004;-81
2023/07/31 09:51:09;;;;;;;7.28;5.10;;;;;;;;;;6262165;22;20051;-80
2023/07/31 09:53:35;;;;;;;12.00;6.10;;;;;;;;;;6223746;22;20004;-83
2023/07/31 09:56:00;;;;;;;11.32;7.07;;;;;;;;;;6248972;22;20002;-82
2023/07/31 09:58:26;;;;;;;7.60;5.18;;;;;;;;;;6223128;22;20008;-82
2023/07/31 10:00:51;;;;;;;7.60;5.38;;;;;;;;;;6248787;22;20427;-82
2023/07/31 10:03:16;;;;;;;9.05;6.55;;;;;;;;;;6223021;22;20003;-82
2023/07/31 10:05:44;;;;;;;6.95;5.38;;;;;;;;;;6248662;22;19996;-82
2023/07/31 10:08:10;;;;;;;6.73;5.30;;;;;;;;;;6223419;22;20006;-81
2023/07/31 10:10:36;;;;;;;8.63;5.78;;;;;;;;;;6222856;22;20565;-81
2023/07/31 10:13:01;;;;;;;6.70;5.53;;;;;;;;;;6254418;22;20007;-81
2023/07/31 10:15:27;;;;;;;6.68;5.45;;;;;;;;;;6254245;22;20319;-83
2023/07/31 10:17:52;;;;;;;6.95;4.55;;;;;;;;;;6248418;22;20503;-81
2023/07/31 10:20:18;;;;;;;5.63;4.38;;;;;;;;;;6248434;22;20007;-85
2023/07/31 10:22:45;;;;;;;6.25;4.03;;;;;;;;;;6248573;22;20065;-82
2023/07/31 10:25:12;;;;;;;4.87;4.20;;;;;;;;;;6223924;22;20071;-83
2023/07/31 10:27:38;;;;;;;5.97;4.40;;;;;;;;;;6223073;22;20003;-82
2023/07/31 10:30:04;;;;;;;7.70;3.90;;;;;;;;;;6223475;22;20003;-83
2023/07/31 10:32:29;;;;;;;4.30;3.70;;;;;;;;;;6248445;22;20008;-82
2023/07/31 10:34:55;;;;;;;10.05;3.67;;;;;;;;;;6247879;22;20004;-83
2023/07/31 10:37:24;;;;;;;8.10;3.75;;;;;;;;;;6286569;22;20038;-82
2023/07/31 10:40:00;;;;;;;6.35;3.35;;;;;;;;;;6283034;22;20125;-83
2023/07/31 10:42:34;;;;;;;3.50;3.20;;;;;;;;;;6287636;22;20411;-81
2023/07/31 10:45:04;;;;;;;5.70;3.90;;;;;;;;;;6285182;22;20033;-83
2023/07/31 10:47:29;;;;;;;5.80;3.83;;;;;;;;;;6223237;22;20347;-83
2023/07/31 10:50:23;;;;;;;13.80;4.00;;;;;;;;;;6248045;22;20004;-82
2023/07/31 10:52:50;;;;;;;7.13;4.38;;;;;;;;;;6225980;22;20011;-82
2023/07/31 10:55:32;;;;;;;4.45;3.85;;;;;;;;;;6275990;22;20004;-83
2023/07/31 10:58:13;;;;;;;4.90;4.35;;;;;;;;;;6228822;22;20000;-83
2023/07/31 11:00:40;;;;;;;5.07;3.85;;;;;;;;;;6265087;22;20000;-82
2023/07/31 11:03:08;;;;;;;5.13;3.17;;;;;;;;;;6258026;22;20004;-82
2023/07/31 11:05:53;;;;;;;5.32;3.67;;;;;;;;;;6273464;22;20011;-82
2023/07/31 11:08:25;;;;;;;4.00;3.42;;;;;;;;;;6271966;22;20004;-83
2023/07/31 11:11:03;;;;;;;4.05;3.58;;;;;;;;;;6283540;22;20008;-82
2023/07/31 11:13:29;;;;;;;4.63;3.55;;;;;;;;;;6253714;22;20078;-82
2023/07/31 11:15:54;;;;;;;4.82;3.38;;;;;;;;;;6277820;22;20011;-83
2023/07/31 11:18:20;;;;;;;4.35;3.53;;;;;;;;;;6276718;22;20000;-81
2023/07/31 11:20:45;;;;;;;5.40;3.33;;;;;;;;;;6279060;22;20052;-83
2023/07/31 11:23:11;;;;;;;4.82;3.50;;;;;;;;;;6230783;22;20053;-82
2023/07/31 11:25:38;;;;;;;4.18;3.10;;;;;;;;;;6280097;22;20003;-82
2023/07/31 11:28:09;;;;;;;3.30;3.00;;;;;;;;;;6277167;22;19999;-82
2023/07/31 11:30:35;;;;;;;5.90;3.30;;;;;;;;;;6277203;22;20141;-83
2023/07/31 11:33:04;;;;;;;4.78;3.25;;;;;;;;;;6276980;22;20003;-82
2023/07/31 11:35:34;;;;;;;5.90;3.33;;;;;;;;;;6250432;22;20049;-82
2023/07/31 11:37:59;;;;;;;;;;;;;;;;;;6277768;22;20355;-82
2023/07/31 11:40:30;;;;;;;4.57;3.55;;;;;;;;;;6276890;22;19907;-82
2023/07/31 11:42:57;;;;;;;4.97;3.30;;;;;;;;;;6277070;22;20078;-83
2023/07/31 11:45:24;;;;;;;3.45;3.00;;;;;;;;;;6252901;22;20000;-83
2023/07/31 11:47:50;;;;;;;5.45;3.75;;;;;;;;;;6264593;22;20087;-82
2023/07/31 11:50:16;;;;;;;6.10;3.72;;;;;;;;;;6278585;22;20346;-82
2023/07/31 11:52:42;;;;;;;4.78;4.05;;;;;;;;;;6277403;22;20007;-84
2023/07/31 11:55:09;;;;;;;3.90;3.42;;;;;;;;;;6276976;22;20034;-83
2023/07/31 11:57:35;;;;;;;5.78;3.90;;;;;;;;;;6224580;22;20284;-84
2023/07/31 12:00:00;;;;;;;13.25;3.75;;;;;;;;;;6249917;22;20014;-83
2023/07/31 12:02:26;;;;;;;5.28;3.78;;;;;;;;;;6224366;22;19999;-83
2023/07/31 12:04:51;;;;;;;7.55;3.47;;;;;;;;;;6249771;22;20007;-84
2023/07/31 12:07:17;;;;;;;4.78;3.60;;;;;;;;;;6224588;22;20003;-84
2023/07/31 12:09:54;;;;;;;5.22;3.90;;;;;;;;;;6283912;22;20027;-83
2023/07/31 12:12:21;;;;;;;3.88;3.42;;;;;;;;;;6229233;22;20010;-83
2023/07/31 12:14:46;;;;;;;5.13;3.85;;;;;;;;;;6250215;22;20012;-85
2023/07/31 12:17:12;;;;;;;6.07;3.85;;;;;;;;;;6276320;22;20004;-83
2023/07/31 12:19:37;;;;;;;7.15;4.28;;;;;;;;;;6250067;22;20003;-82
2023/07/31 12:22:14;;;;;;;4.53;4.03;;;;;;;;;;6276906;22;20355;-83
2023/07/31 12:24:44;;;;;;;5.50;3.70;;;;;;;;;;6276502;22;20003;-82
2023/07/31 12:27:13;;;;;;;5.60;4.20;;;;;;;;;;6276100;22;20513;-81
2023/07/31 12:29:40;;;;;;;4.82;4.00;;;;;;;;;;6250033;22;20004;-83
2023/07/31 12:32:25;;;;;;;9.02;4.30;;;;;;;;;;6254454;22;20059;-85
2023/07/31 12:34:50;;;;;;;5.82;4.63;;;;;;;;;;6284801;22;20027;-84
2023/07/31 12:37:16;;;;;;;8.00;4.45;;;;;;;;;;6276650;22;20484;-84
2023/07/31 12:39:42;;;;;;;5.72;4.80;;;;;;;;;;6224256;22;20030;-82
2023/07/31 12:42:07;;;;;;;8.00;4.78;;;;;;;;;;6276005;22;20396;-82
2023/07/31 12:44:33;;;;;;;14.82;5.80;;;;;;;;;;6249198;22;19999;-82
2023/07/31 12:46:58;;;;;;;7.78;4.93;;;;;;;;;;6223868;22;20090;-83
2023/07/31 12:49:25;;;;;;;6.68;4.07;;;;;;;;;;6248716;22;20117;-81
2023/07/31 12:51:50;;;;;;;7.85;3.85;;;;;;;;;;6223624;22;20014;-82
2023/07/31 12:54:16;;;;;;;5.78;3.95;;;;;;;;;;6276213;22;20079;-82
2023/07/31 12:56:41;;;;;;;4.10;3.63;;;;;;;;;;6228274;22;20000;-80
2023/07/31 12:59:07;;;;;;;6.10;4.30;;;;;;;;;;6276228;22;19996;-83
2023/07/31 13:01:32;;;;;;;8.00;3.97;;;;;;;;;;6276138;22;20003;-83
2023/07/31 13:03:58;;;;;;;6.35;4.45;;;;;;;;;;6276087;22;19999;-83
2023/07/31 13:06:24;;;;;;;4.13;3.50;;;;;;;;;;6224180;22;19999;-83
2023/07/31 13:08:50;;;;;;;6.75;4.30;;;;;;;;;;6223971;22;20419;-83
2023/07/31 13:11:15;;;;;;;5.18;3.53;;;;;;;;;;6248925;22;20011;-82
2023/07/31 13:13:41;;;;;;;4.88;3.85;;;;;;;;;;6248519;22;20003;-82
2023/07/31 13:16:06;;;;;;;5.05;4.03;;;;;;;;;;6275693;22;19996;-83
2023/07/31 13:18:31;;;;;;;6.60;4.20;;;;;;;;;;6251955;22;20004;-80
2023/07/31 13:20:57;;;;;;;4.95;3.72;;;;;;;;;;6260212;22;20019;-80
2023/07/31 13:23:22;;;;;;;6.55;3.97;;;;;;;;;;6278280;22;20007;-84
2023/07/31 13:25:48;;;;;;;9.80;3.88;;;;;;;;;;6276110;22;20000;-82
2023/07/31 13:28:14;;;;;;;5.43;3.58;;;;;;;;;;6275271;22;20427;-80
2023/07/31 13:30:39;;;;;;;4.85;3.40;;;;;;;;;;6275465;22;20004;-81
2023/07/31 13:33:05;;;;;;;6.10;3.50;;;;;;;;;;6248327;22;20450;-80
2023/07/31 13:35:31;;;;;;;7.35;4.32;;;;;;;;;;6275737;22;20080;-82
2023/07/31 13:37:57;;;;;;;6.88;4.32;;;;;;;;;;6223448;22;20000;-81
2023/07/31 13:40:23;;;;;;;6.40;4.47;;;;;;;;;;6248559;22;20058;-81
2023/07/31 13:42:48;;;;;;;8.02;4.40;;;;;;;;;;6254025;22;20459;-81
2023/07/31 13:45:14;;;;;;;9.13;4.03;;;;;;;;;;6250988;22;19996;-83
2023/07/31 13:47:39;;;;;;;9.60;3.90;;;;;;;;;;6248384;22;20012;-82
2023/07/31 13:50:05;;;;;;;5.72;3.85;;;;;;;;;;6248296;22;20054;-82
2023/07/31 13:52:31;;;;;;;5.28;3.97;;;;;;;;;;6247911;22;20019;-81
2023/07/31 13:54:56;;;;;;;6.28;3.90;;;;;;;;;;6248969;22;19996;-82
2023/07/31 13:57:23;;;;;;;12.75;3.95;;;;;;;;;;6275032;22;20004;-81
2023/07/31 13:59:48;;;;;;;5.38;3.97;;;;;;;;;;6223258;22;20433;-81
2023/07/31 14:02:14;;;;;;;8.68;4.47;;;;;;;;;;6248228;22;19999;-81
2023/07/31 14:04:40;;;;;;;5.65;4.30;;;;;;;;;;6276298;22;20016;-81
2023/07/31 14:07:05;;;;;;;8.00;3.95;;;;;;;;;;6253510;22;20003;-81
2023/07/31 14:09:31;;;;;;;5.38;3.97;;;;;;;;;;6223623;22;20051;-82
2023/07/31 14:11:56;;;;;;;5.28;3.67;;;;;;;;;;6247730;22;20004;-81
2023/07/31 14:14:22;;;;;;;4.90;3.90;;;;;;;;;;6248127;22;20435;-82
2023/07/31 14:16:47;;;;;;;6.78;4.00;;;;;;;;;;6248380;22;20112;-82
2023/07/31 14:19:12;;;;;;;5.63;4.00;;;;;;;;;;6275095;22;20418;-82
2023/07/31 14:21:38;;;;;;;7.53;4.15;;;;;;;;;;6248191;22;20075;-81
2023/07/31 14:24:04;;;;;;;7.57;4.25;;;;;;;;;;6275385;22;20003;-82
2023/07/31 14:26:29;;;;;;;7.38;4.32;;;;;;;;;;6274726;22;20015;-82
2023/07/31 14:28:54;;;;;;;8.50;4.45;;;;;;;;;;6226671;22;20094;-82
2023/07/31 14:31:20;;;;;;;5.93;4.22;;;;;;;;;;6275628;22;20052;-81